sensor_id;sensor_type;location;lat;lon;timestamp;temperature;humidity
16976;DHT22;8604;48.148;-1.786;2023-05-07T00:01:20;16.00;99.90
16976;DHT22;8604;48.148;-1.786;2023-05-07T00:03:49;16.00;99.90
16976;DHT22;8604;48.148;-1.786;2023-05-07T00:06:19;16.00;99.90
16976;DHT22;8604;48.148;-1.786;2023-05-07T00:08:47;15.90;99.90
16976;DHT22;8604;48.148;-1.786;2023-05-07T00:11:16;15.90;99.90
16976;DHT22;8604;48.148;-1.786;2023-05-07T00:13:44;15.90;99.90
16976;DHT22;8604;48.148;-1.786;2023-05-07T00:16:12;15.90;99.90
16976;DHT22;8604;48.148;-1.786;2023-05-07T00:18:41;15.90;99.90
16976;DHT22;8604;48.148;-1.786;2023-05-07T00:21:10;15.80;99.90
16976;DHT22;8604;48.148;-1.786;2023-05-07T00:23:39;15.80;99.90
16976;DHT22;8604;48.148;-1.786;2023-05-07T00:26:08;15.80;99.90
16976;DHT22;8604;48.148;-1.786;2023-05-07T00:28:36;15.80;99.90
16976;DHT22;8604;48.148;-1.786;2023-05-07T00:31:05;15.90;99.90
16976;DHT22;8604;48.148;-1.786;2023-05-07T00:33:33;15.90;99.90
16976;DHT22;8604;48.148;-1.786;2023-05-07T00:36:01;15.80;99.90
16976;DHT22;8604;48.148;-1.786;2023-05-07T00:38:30;15.90;99.90
16976;DHT22;8604;48.148;-1.786;2023-05-07T00:41:00;15.80;99.90
16976;DHT22;8604;48.148;-1.786;2023-05-07T00:43:29;15.80;99.90
16976;DHT22;8604;48.148;-1.786;2023-05-07T00:45:57;15.80;99.90
16976;DHT22;8604;48.148;-1.786;2023-05-07T00:48:26;15.80;99.90
16976;DHT22;8604;48.148;-1.786;2023-05-07T00:50:56;15.80;99.90
16976;DHT22;8604;48.148;-1.786;2023-05-07T00:53:25;15.70;99.90
16976;DHT22;8604;48.148;-1.786;2023-05-07T00:55:53;15.70;99.90
16976;DHT22;8604;48.148;-1.786;2023-05-07T00:58:23;15.60;99.90
16976;DHT22;8604;48.148;-1.786;2023-05-07T01:00:52;15.70;99.90
16976;DHT22;8604;48.148;-1.786;2023-05-07T01:03:21;15.60;99.90
16976;DHT22;8604;48.148;-1.786;2023-05-07T01:05:50;15.60;99.90
16976;DHT22;8604;48.148;-1.786;2023-05-07T01:08:22;15.60;99.90
16976;DHT22;8604;48.148;-1.786;2023-05-07T01:10:53;15.60;99.90
16976;DHT22;8604;48.148;-1.786;2023-05-07T01:13:24;15.60;99.90
16976;DHT22;8604;48.148;-1.786;2023-05-07T01:15:53;15.50;99.90
16976;DHT22;8604;48.148;-1.786;2023-05-07T01:18:21;15.50;99.90
16976;DHT22;8604;48.148;-1.786;2023-05-07T01:20:50;15.50;99.90
16976;DHT22;8604;48.148;-1.786;2023-05-07T01:23:20;15.50;99.90
16976;DHT22;8604;48.148;-1.786;2023-05-07T01:25:52;15.50;99.90
16976;DHT22;8604;48.148;-1.786;2023-05-07T01:28:23;15.50;99.90
16976;DHT22;8604;48.148;-1.786;2023-05-07T01:31:00;15.40;99.90
16976;DHT22;8604;48.148;-1.786;2023-05-07T01:33:33;15.40;99.90
16976;DHT22;8604;48.148;-1.786;2023-05-07T01:36:03;15.40;99.90
16976;DHT22;8604;48.148;-1.786;2023-05-07T01:38:35;15.40;99.90
16976;DHT22;8604;48.148;-1.786;2023-05-07T01:41:04;15.30;99.90
16976;DHT22;8604;48.148;-1.786;2023-05-07T01:43:34;15.30;99.90
16976;DHT22;8604;48.148;-1.786;2023-05-07T01:46:03;15.30;99.90
16976;DHT22;8604;48.148;-1.786;2023-05-07T01:48:32;15.20;99.90
16976;DHT22;8604;48.148;-1.786;2023-05-07T01:51:01;15.20;99.90
16976;DHT22;8604;48.148;-1.786;2023-05-07T01:53:36;15.20;99.90
16976;DHT22;8604;48.148;-1.786;2023-05-07T01:56:06;15.10;99.90
16976;DHT22;8604;48.148;-1.786;2023-05-07T01:58:37;15.10;99.90
16976;DHT22;8604;48.148;-1.786;2023-05-07T02:01:05;15.10;99.90
16976;DHT22;8604;48.148;-1.786;2023-05-07T02:03:34;15.00;99.90
16976;DHT22;8604;48.148;-1.786;2023-05-07T02:06:09;15.00;99.90
16976;DHT22;8604;48.148;-1.786;2023-05-07T02:08:40;15.00;99.90
16976;DHT22;8604;48.148;-1.786;2023-05-07T02:11:10;14.90;99.90
16976;DHT22;8604;48.148;-1.786;2023-05-07T02:13:39;14.90;99.90
16976;DHT22;8604;48.148;-1.786;2023-05-07T02:16:07;14.90;99.90
16976;DHT22;8604;48.148;-1.786;2023-05-07T02:18:38;14.90;99.90
16976;DHT22;8604;48.148;-1.786;2023-05-07T02:21:06;14.90;99.90
16976;DHT22;8604;48.148;-1.786;2023-05-07T02:23:37;14.90;99.90
16976;DHT22;8604;48.148;-1.786;2023-05-07T02:26:09;14.90;99.90
16976;DHT22;8604;48.148;-1.786;2023-05-07T02:28:38;14.90;99.90
16976;DHT22;8604;48.148;-1.786;2023-05-07T02:31:06;14.90;99.90
16976;DHT22;8604;48.148;-1.786;2023-05-07T02:33:35;14.90;99.90
16976;DHT22;8604;48.148;-1.786;2023-05-07T02:36:07;14.90;99.90
16976;DHT22;8604;48.148;-1.786;2023-05-07T02:38:41;14.90;99.90
16976;DHT22;8604;48.148;-1.786;2023-05-07T02:41:11;14.90;99.90
16976;DHT22;8604;48.148;-1.786;2023-05-07T02:43:39;14.90;99.90
16976;DHT22;8604;48.148;-1.786;2023-05-07T02:46:09;15.00;99.90
16976;DHT22;8604;48.148;-1.786;2023-05-07T02:48:42;14.90;99.90
16976;DHT22;8604;48.148;-1.786;2023-05-07T02:51:11;15.00;99.90
16976;DHT22;8604;48.148;-1.786;2023-05-07T02:53:44;15.00;99.90
16976;DHT22;8604;48.148;-1.786;2023-05-07T02:56:14;15.00;99.90
16976;DHT22;8604;48.148;-1.786;2023-05-07T02:58:42;15.00;99.90
16976;DHT22;8604;48.148;-1.786;2023-05-07T03:01:12;15.00;99.90
16976;DHT22;8604;48.148;-1.786;2023-05-07T03:03:56;15.00;99.90
16976;DHT22;8604;48.148;-1.786;2023-05-07T03:06:25;15.00;99.90
16976;DHT22;8604;48.148;-1.786;2023-05-07T03:08:54;15.00;99.90
16976;DHT22;8604;48.148;-1.786;2023-05-07T03:11:23;15.00;99.90
16976;DHT22;8604;48.148;-1.786;2023-05-07T03:13:52;15.00;99.90
16976;DHT22;8604;48.148;-1.786;2023-05-07T03:16:21;15.00;99.90
16976;DHT22;8604;48.148;-1.786;2023-05-07T03:18:50;15.00;99.90
16976;DHT22;8604;48.148;-1.786;2023-05-07T03:21:18;15.00;99.90
16976;DHT22;8604;48.148;-1.786;2023-05-07T03:23:46;15.00;99.90
16976;DHT22;8604;48.148;-1.786;2023-05-07T03:26:15;15.00;99.90
16976;DHT22;8604;48.148;-1.786;2023-05-07T03:28:45;15.00;99.90
16976;DHT22;8604;48.148;-1.786;2023-05-07T03:31:16;15.00;99.90
16976;DHT22;8604;48.148;-1.786;2023-05-07T03:33:51;14.90;99.90
16976;DHT22;8604;48.148;-1.786;2023-05-07T03:36:20;15.00;99.90
16976;DHT22;8604;48.148;-1.786;2023-05-07T03:38:49;15.00;99.90
16976;DHT22;8604;48.148;-1.786;2023-05-07T03:41:20;15.00;99.90
16976;DHT22;8604;48.148;-1.786;2023-05-07T03:43:50;15.00;99.90
16976;DHT22;8604;48.148;-1.786;2023-05-07T03:46:18;15.00;99.90
16976;DHT22;8604;48.148;-1.786;2023-05-07T03:48:47;15.00;99.90
16976;DHT22;8604;48.148;-1.786;2023-05-07T03:51:16;15.00;99.90
16976;DHT22;8604;48.148;-1.786;2023-05-07T03:53:45;15.00;99.90
16976;DHT22;8604;48.148;-1.786;2023-05-07T03:56:13;15.00;99.90
16976;DHT22;8604;48.148;-1.786;2023-05-07T03:58:45;15.00;99.90
16976;DHT22;8604;48.148;-1.786;2023-05-07T04:01:14;15.00;99.90
16976;DHT22;8604;48.148;-1.786;2023-05-07T04:03:43;15.00;99.90
16976;DHT22;8604;48.148;-1.786;2023-05-07T04:06:11;15.00;99.90
16976;DHT22;8604;48.148;-1.786;2023-05-07T04:08:43;15.00;99.90
16976;DHT22;8604;48.148;-1.786;2023-05-07T04:11:13;15.00;99.90
16976;DHT22;8604;48.148;-1.786;2023-05-07T04:13:41;15.00;99.90
16976;DHT22;8604;48.148;-1.786;2023-05-07T04:16:11;15.00;99.90
16976;DHT22;8604;48.148;-1.786;2023-05-07T04:18:41;15.00;99.90
16976;DHT22;8604;48.148;-1.786;2023-05-07T04:21:14;15.00;99.90
16976;DHT22;8604;48.148;-1.786;2023-05-07T04:23:43;15.00;99.90
16976;DHT22;8604;48.148;-1.786;2023-05-07T04:26:14;15.00;99.90
16976;DHT22;8604;48.148;-1.786;2023-05-07T04:28:44;15.00;99.90
16976;DHT22;8604;48.148;-1.786;2023-05-07T04:31:13;15.00;99.90
16976;DHT22;8604;48.148;-1.786;2023-05-07T04:33:47;15.00;99.90
16976;DHT22;8604;48.148;-1.786;2023-05-07T04:36:15;15.00;99.90
16976;DHT22;8604;48.148;-1.786;2023-05-07T04:38:50;14.90;99.90
16976;DHT22;8604;48.148;-1.786;2023-05-07T04:41:19;14.90;99.90
16976;DHT22;8604;48.148;-1.786;2023-05-07T04:43:48;14.90;99.90
16976;DHT22;8604;48.148;-1.786;2023-05-07T04:46:18;14.90;99.90
16976;DHT22;8604;48.148;-1.786;2023-05-07T04:48:49;14.90;99.90
16976;DHT22;8604;48.148;-1.786;2023-05-07T04:51:18;14.90;99.90
16976;DHT22;8604;48.148;-1.786;2023-05-07T04:53:47;14.90;99.90
16976;DHT22;8604;48.148;-1.786;2023-05-07T04:56:15;14.90;99.90
16976;DHT22;8604;48.148;-1.786;2023-05-07T04:58:45;14.90;99.90
16976;DHT22;8604;48.148;-1.786;2023-05-07T05:01:15;14.90;99.90
16976;DHT22;8604;48.148;-1.786;2023-05-07T05:03:44;14.90;99.90
16976;DHT22;8604;48.148;-1.786;2023-05-07T05:06:13;14.90;99.90
16976;DHT22;8604;48.148;-1.786;2023-05-07T05:08:42;14.90;99.90
16976;DHT22;8604;48.148;-1.786;2023-05-07T05:11:10;14.90;99.90
16976;DHT22;8604;48.148;-1.786;2023-05-07T05:13:39;14.90;99.90
16976;DHT22;8604;48.148;-1.786;2023-05-07T05:16:13;14.80;99.90
16976;DHT22;8604;48.148;-1.786;2023-05-07T05:18:41;14.90;99.90
16976;DHT22;8604;48.148;-1.786;2023-05-07T05:21:14;14.90;99.90
16976;DHT22;8604;48.148;-1.786;2023-05-07T05:23:44;14.90;99.90
16976;DHT22;8604;48.148;-1.786;2023-05-07T05:26:17;14.90;99.90
16976;DHT22;8604;48.148;-1.786;2023-05-07T05:28:45;14.90;99.90
16976;DHT22;8604;48.148;-1.786;2023-05-07T05:31:16;14.90;99.90
16976;DHT22;8604;48.148;-1.786;2023-05-07T05:33:44;14.90;99.90
16976;DHT22;8604;48.148;-1.786;2023-05-07T05:36:14;14.90;99.90
16976;DHT22;8604;48.148;-1.786;2023-05-07T05:38:44;14.90;99.90
16976;DHT22;8604;48.148;-1.786;2023-05-07T05:41:13;15.00;99.90
16976;DHT22;8604;48.148;-1.786;2023-05-07T05:43:41;14.90;99.90
16976;DHT22;8604;48.148;-1.786;2023-05-07T05:49:59;15.00;99.90
16976;DHT22;8604;48.148;-1.786;2023-05-07T05:53:14;15.00;99.90
16976;DHT22;8604;48.148;-1.786;2023-05-07T05:56:13;15.10;99.90
16976;DHT22;8604;48.148;-1.786;2023-05-07T05:59:10;15.10;99.90
16976;DHT22;8604;48.148;-1.786;2023-05-07T06:02:09;15.20;99.90
16976;DHT22;8604;48.148;-1.786;2023-05-07T06:04:53;15.30;99.90
16976;DHT22;8604;48.148;-1.786;2023-05-07T06:07:48;15.30;99.90
16976;DHT22;8604;48.148;-1.786;2023-05-07T06:10:37;15.40;99.90
16976;DHT22;8604;48.148;-1.786;2023-05-07T06:17:58;15.50;99.90
16976;DHT22;8604;48.148;-1.786;2023-05-07T06:21:18;15.50;99.90
16976;DHT22;8604;48.148;-1.786;2023-05-07T06:27:45;15.60;99.90
16976;DHT22;8604;48.148;-1.786;2023-05-07T06:30:36;15.70;99.90
16976;DHT22;8604;48.148;-1.786;2023-05-07T06:33:16;15.70;99.90
16976;DHT22;8604;48.148;-1.786;2023-05-07T06:36:08;15.60;99.90
16976;DHT22;8604;48.148;-1.786;2023-05-07T06:39:12;15.60;99.90
16976;DHT22;8604;48.148;-1.786;2023-05-07T06:41:51;15.60;99.90
16976;DHT22;8604;48.148;-1.786;2023-05-07T06:44:42;15.60;99.90
16976;DHT22;8604;48.148;-1.786;2023-05-07T06:47:18;15.60;99.90
16976;DHT22;8604;48.148;-1.786;2023-05-07T06:49:51;15.60;99.90
16976;DHT22;8604;48.148;-1.786;2023-05-07T06:52:23;15.60;99.90
16976;DHT22;8604;48.148;-1.786;2023-05-07T06:54:56;15.70;99.90
16976;DHT22;8604;48.148;-1.786;2023-05-07T06:57:30;15.70;99.90
16976;DHT22;8604;48.148;-1.786;2023-05-07T07:00:01;15.60;99.90
16976;DHT22;8604;48.148;-1.786;2023-05-07T17:15:31;18.90;99.90
16976;DHT22;8604;48.148;-1.786;2023-05-07T17:18:03;18.80;99.90
16976;DHT22;8604;48.148;-1.786;2023-05-07T17:20:34;18.70;99.90
16976;DHT22;8604;48.148;-1.786;2023-05-07T17:23:05;18.60;99.90
16976;DHT22;8604;48.148;-1.786;2023-05-07T17:25:34;18.50;99.90
16976;DHT22;8604;48.148;-1.786;2023-05-07T17:28:11;18.50;99.90
16976;DHT22;8604;48.148;-1.786;2023-05-07T17:30:41;18.40;99.90
16976;DHT22;8604;48.148;-1.786;2023-05-07T17:33:13;18.40;99.90
16976;DHT22;8604;48.148;-1.786;2023-05-07T17:35:48;18.30;99.90
16976;DHT22;8604;48.148;-1.786;2023-05-07T17:38:17;18.20;99.90
16976;DHT22;8604;48.148;-1.786;2023-05-07T17:40:46;18.10;99.90
16976;DHT22;8604;48.148;-1.786;2023-05-07T18:16:14;17.00;99.90
16976;DHT22;8604;48.148;-1.786;2023-05-07T18:18:44;17.00;99.90
16976;DHT22;8604;48.148;-1.786;2023-05-07T18:21:13;16.90;99.90
16976;DHT22;8604;48.148;-1.786;2023-05-07T18:24:09;16.90;99.90
16976;DHT22;8604;48.148;-1.786;2023-05-07T18:26:55;16.90;99.90
16976;DHT22;8604;48.148;-1.786;2023-05-07T18:29:24;16.80;99.90
16976;DHT22;8604;48.148;-1.786;2023-05-07T18:31:54;16.70;99.90
16976;DHT22;8604;48.148;-1.786;2023-05-07T18:34:22;16.70;99.90
16976;DHT22;8604;48.148;-1.786;2023-05-07T18:36:51;16.60;99.90
16976;DHT22;8604;48.148;-1.786;2023-05-07T18:39:19;16.60;99.90
16976;DHT22;8604;48.148;-1.786;2023-05-07T18:41:48;16.50;99.90
16976;DHT22;8604;48.148;-1.786;2023-05-07T18:44:16;16.50;99.90
16976;DHT22;8604;48.148;-1.786;2023-05-07T18:46:45;16.40;99.90
16976;DHT22;8604;48.148;-1.786;2023-05-07T18:49:16;16.40;99.90
16976;DHT22;8604;48.148;-1.786;2023-05-07T18:51:44;16.30;99.90
16976;DHT22;8604;48.148;-1.786;2023-05-07T18:54:13;16.30;99.90
16976;DHT22;8604;48.148;-1.786;2023-05-07T18:56:42;16.30;99.90
16976;DHT22;8604;48.148;-1.786;2023-05-07T18:59:10;16.20;99.90
16976;DHT22;8604;48.148;-1.786;2023-05-07T19:01:39;16.20;99.90
16976;DHT22;8604;48.148;-1.786;2023-05-07T19:04:07;16.10;99.90
16976;DHT22;8604;48.148;-1.786;2023-05-07T19:06:38;16.10;99.90
16976;DHT22;8604;48.148;-1.786;2023-05-07T19:09:06;16.00;99.90
16976;DHT22;8604;48.148;-1.786;2023-05-07T19:11:38;16.00;99.90
16976;DHT22;8604;48.148;-1.786;2023-05-07T19:14:18;16.00;99.90
16976;DHT22;8604;48.148;-1.786;2023-05-07T19:17:09;15.90;99.90
16976;DHT22;8604;48.148;-1.786;2023-05-07T19:19:39;15.90;99.90
16976;DHT22;8604;48.148;-1.786;2023-05-07T19:22:09;15.80;99.90
16976;DHT22;8604;48.148;-1.786;2023-05-07T19:24:38;15.80;99.90
16976;DHT22;8604;48.148;-1.786;2023-05-07T19:27:07;15.70;99.90
16976;DHT22;8604;48.148;-1.786;2023-05-07T19:29:35;15.60;99.90
16976;DHT22;8604;48.148;-1.786;2023-05-07T19:32:10;15.50;99.90
16976;DHT22;8604;48.148;-1.786;2023-05-07T19:35:06;15.50;99.90
16976;DHT22;8604;48.148;-1.786;2023-05-07T19:37:36;15.40;99.90
16976;DHT22;8604;48.148;-1.786;2023-05-07T19:40:06;15.30;99.90
16976;DHT22;8604;48.148;-1.786;2023-05-07T19:42:50;15.30;99.90
16976;DHT22;8604;48.148;-1.786;2023-05-07T19:48:16;15.30;99.90
16976;DHT22;8604;48.148;-1.786;2023-05-07T19:50:46;15.20;99.90
16976;DHT22;8604;48.148;-1.786;2023-05-07T19:53:25;15.20;99.90
16976;DHT22;8604;48.148;-1.786;2023-05-07T19:56:01;15.20;99.90
16976;DHT22;8604;48.148;-1.786;2023-05-07T19:58:30;15.10;99.90
16976;DHT22;8604;48.148;-1.786;2023-05-07T20:00:59;15.10;99.90
16976;DHT22;8604;48.148;-1.786;2023-05-07T20:03:28;15.10;99.90
16976;DHT22;8604;48.148;-1.786;2023-05-07T20:05:56;15.10;99.90
16976;DHT22;8604;48.148;-1.786;2023-05-07T20:08:27;15.00;99.90
16976;DHT22;8604;48.148;-1.786;2023-05-07T20:10:57;15.00;99.90
16976;DHT22;8604;48.148;-1.786;2023-05-07T20:13:26;14.90;99.90
16976;DHT22;8604;48.148;-1.786;2023-05-07T20:15:57;14.90;99.90
16976;DHT22;8604;48.148;-1.786;2023-05-07T20:18:27;14.90;99.90
16976;DHT22;8604;48.148;-1.786;2023-05-07T20:20:55;14.80;99.90
16976;DHT22;8604;48.148;-1.786;2023-05-07T20:23:24;14.80;99.90
16976;DHT22;8604;48.148;-1.786;2023-05-07T20:25:54;14.80;99.90
16976;DHT22;8604;48.148;-1.786;2023-05-07T20:28:22;14.70;99.90
16976;DHT22;8604;48.148;-1.786;2023-05-07T20:30:51;14.60;99.90
16976;DHT22;8604;48.148;-1.786;2023-05-07T20:33:19;14.50;99.90
16976;DHT22;8604;48.148;-1.786;2023-05-07T20:35:48;14.50;99.90
16976;DHT22;8604;48.148;-1.786;2023-05-07T20:38:16;14.50;99.90
16976;DHT22;8604;48.148;-1.786;2023-05-07T20:40:45;14.50;99.90
16976;DHT22;8604;48.148;-1.786;2023-05-07T20:43:15;14.50;99.90
16976;DHT22;8604;48.148;-1.786;2023-05-07T20:45:43;14.40;99.90
16976;DHT22;8604;48.148;-1.786;2023-05-07T20:48:12;14.40;99.90
16976;DHT22;8604;48.148;-1.786;2023-05-07T20:50:40;14.40;99.90
16976;DHT22;8604;48.148;-1.786;2023-05-07T20:53:09;14.40;99.90
16976;DHT22;8604;48.148;-1.786;2023-05-07T20:55:37;14.30;99.90
16976;DHT22;8604;48.148;-1.786;2023-05-07T20:58:05;14.30;99.90
16976;DHT22;8604;48.148;-1.786;2023-05-07T21:00:36;14.30;99.90
16976;DHT22;8604;48.148;-1.786;2023-05-07T21:03:05;14.30;99.90
16976;DHT22;8604;48.148;-1.786;2023-05-07T21:05:33;14.30;99.90
16976;DHT22;8604;48.148;-1.786;2023-05-07T21:08:02;14.30;99.90
16976;DHT22;8604;48.148;-1.786;2023-05-07T21:10:31;14.30;99.90
16976;DHT22;8604;48.148;-1.786;2023-05-07T21:12:59;14.40;99.90
16976;DHT22;8604;48.148;-1.786;2023-05-07T21:15:28;14.30;99.90
16976;DHT22;8604;48.148;-1.786;2023-05-07T21:17:57;14.30;99.90
16976;DHT22;8604;48.148;-1.786;2023-05-07T21:20:27;14.30;99.90
16976;DHT22;8604;48.148;-1.786;2023-05-07T21:22:56;14.30;99.90
16976;DHT22;8604;48.148;-1.786;2023-05-07T21:25:24;14.30;99.90
16976;DHT22;8604;48.148;-1.786;2023-05-07T21:27:53;14.30;99.90
16976;DHT22;8604;48.148;-1.786;2023-05-07T21:30:21;14.30;99.90
16976;DHT22;8604;48.148;-1.786;2023-05-07T21:32:50;14.40;99.90
16976;DHT22;8604;48.148;-1.786;2023-05-07T21:35:20;14.40;99.90
16976;DHT22;8604;48.148;-1.786;2023-05-07T21:37:48;14.40;99.90
16976;DHT22;8604;48.148;-1.786;2023-05-07T21:40:17;14.40;99.90
16976;DHT22;8604;48.148;-1.786;2023-05-07T21:42:45;14.40;99.90
16976;DHT22;8604;48.148;-1.786;2023-05-07T21:45:14;14.30;99.90
16976;DHT22;8604;48.148;-1.786;2023-05-07T21:47:42;14.30;99.90
16976;DHT22;8604;48.148;-1.786;2023-05-07T21:50:10;14.30;99.90
16976;DHT22;8604;48.148;-1.786;2023-05-07T21:52:41;14.30;99.90
16976;DHT22;8604;48.148;-1.786;2023-05-07T21:55:09;14.20;99.90
16976;DHT22;8604;48.148;-1.786;2023-05-07T21:57:38;14.20;99.90
16976;DHT22;8604;48.148;-1.786;2023-05-07T22:00:14;14.20;99.90
16976;DHT22;8604;48.148;-1.786;2023-05-07T22:02:43;14.10;99.90
16976;DHT22;8604;48.148;-1.786;2023-05-07T22:05:11;14.10;99.90
16976;DHT22;8604;48.148;-1.786;2023-05-07T22:07:41;14.10;99.90
16976;DHT22;8604;48.148;-1.786;2023-05-07T22:10:10;14.10;99.90
16976;DHT22;8604;48.148;-1.786;2023-05-07T22:12:38;14.10;99.90
16976;DHT22;8604;48.148;-1.786;2023-05-07T22:15:08;14.00;99.90
16976;DHT22;8604;48.148;-1.786;2023-05-07T22:17:36;14.00;99.90
16976;DHT22;8604;48.148;-1.786;2023-05-07T22:20:06;14.00;99.90
16976;DHT22;8604;48.148;-1.786;2023-05-07T22:22:45;13.90;99.90
16976;DHT22;8604;48.148;-1.786;2023-05-07T22:25:18;13.90;99.90
16976;DHT22;8604;48.148;-1.786;2023-05-07T22:27:46;13.90;99.90
16976;DHT22;8604;48.148;-1.786;2023-05-07T22:30:15;13.80;99.90
16976;DHT22;8604;48.148;-1.786;2023-05-07T22:32:44;13.80;99.90
16976;DHT22;8604;48.148;-1.786;2023-05-07T22:35:12;13.70;99.90
16976;DHT22;8604;48.148;-1.786;2023-05-07T22:37:41;13.60;99.90
16976;DHT22;8604;48.148;-1.786;2023-05-07T22:40:11;13.60;99.90
16976;DHT22;8604;48.148;-1.786;2023-05-07T22:42:40;13.60;99.90
16976;DHT22;8604;48.148;-1.786;2023-05-07T22:45:09;13.50;99.90
16976;DHT22;8604;48.148;-1.786;2023-05-07T22:47:38;13.50;99.90
16976;DHT22;8604;48.148;-1.786;2023-05-07T22:50:07;13.50;99.90
16976;DHT22;8604;48.148;-1.786;2023-05-07T22:52:35;13.50;99.90
16976;DHT22;8604;48.148;-1.786;2023-05-07T22:55:04;13.50;99.90
16976;DHT22;8604;48.148;-1.786;2023-05-07T22:57:34;13.50;99.90
16976;DHT22;8604;48.148;-1.786;2023-05-07T23:00:03;13.50;99.90
16976;DHT22;8604;48.148;-1.786;2023-05-07T23:02:32;13.50;99.90
16976;DHT22;8604;48.148;-1.786;2023-05-07T23:05:00;13.50;99.90
16976;DHT22;8604;48.148;-1.786;2023-05-07T23:07:29;13.40;99.90
16976;DHT22;8604;48.148;-1.786;2023-05-07T23:09:57;13.40;99.90
16976;DHT22;8604;48.148;-1.786;2023-05-07T23:12:25;13.40;99.90
16976;DHT22;8604;48.148;-1.786;2023-05-07T23:14:55;13.40;99.90
16976;DHT22;8604;48.148;-1.786;2023-05-07T23:17:23;13.40;99.90
16976;DHT22;8604;48.148;-1.786;2023-05-07T23:19:51;13.40;99.90
16976;DHT22;8604;48.148;-1.786;2023-05-07T23:22:20;13.50;99.90
16976;DHT22;8604;48.148;-1.786;2023-05-07T23:24:48;13.50;99.90
16976;DHT22;8604;48.148;-1.786;2023-05-07T23:27:16;13.50;99.90
16976;DHT22;8604;48.148;-1.786;2023-05-07T23:29:45;13.50;99.90
16976;DHT22;8604;48.148;-1.786;2023-05-07T23:32:15;13.50;99.90
16976;DHT22;8604;48.148;-1.786;2023-05-07T23:34:43;13.60;99.90
16976;DHT22;8604;48.148;-1.786;2023-05-07T23:37:11;13.60;99.90
16976;DHT22;8604;48.148;-1.786;2023-05-07T23:39:43;13.60;99.90
16976;DHT22;8604;48.148;-1.786;2023-05-07T23:42:11;13.60;99.90
16976;DHT22;8604;48.148;-1.786;2023-05-07T23:44:40;13.60;99.90
16976;DHT22;8604;48.148;-1.786;2023-05-07T23:47:08;13.60;99.90
16976;DHT22;8604;48.148;-1.786;2023-05-07T23:49:38;13.60;99.90
16976;DHT22;8604;48.148;-1.786;2023-05-07T23:52:06;13.60;99.90
16976;DHT22;8604;48.148;-1.786;2023-05-07T23:54:35;13.60;99.90
16976;DHT22;8604;48.148;-1.786;2023-05-07T23:57:03;13.70;99.90
16976;DHT22;8604;48.148;-1.786;2023-05-07T23:59:31;13.70;99.90
